Terminal Aerodrome Forecast
Issued by NWS

Home | Current Version | Previous Version | Text Only | Print | Product List | Glossary On
Versions: 1 2 3 4 5 6 7 8 9 10 11 12 13 14 15 16 17 18 19 20 21
000
FTUS43 KDTX 180916 AAA
TAFPTK
TAF AMD
KPTK 180916Z 1809/1906 27008KT 4SM BR OVC003
     FM181700 26008KT 6SM BR OVC006
     FM182000 23007KT P6SM OVC008
     FM190300 22007KT P6SM SCT025 BKN035=

USA.gov is the U.S. government's official web portal to all federal, state and local government web resources and services.